Time,TemperatureF,DewpointF,PressureIn,WindDirection,WindDirectionDegrees,WindSpeedMPH,WindSpeedGustMPH,Humidity,HourlyPrecipIn,Conditions,Clouds,dailyrainin,SoftwareType,DateUTC
2013-11-23 00:02:00,38.1,34.0,30.40,NW,312,3.0,6.0,84,0.00,,,0.00,weatherlink.com 1.10,2013-11-23 05:02:00,
2013-11-23 00:17:00,38.0,34.0,30.41,NNW,336,4.0,7.0,84,0.00,,,0.00,weatherlink.com 1.10,2013-11-23 05:17:00,
2013-11-23 00:32:00,37.9,34.0,30.41,NNW,344,0.0,4.0,84,0.00,,,0.00,weatherlink.com 1.10,2013-11-23 05:32:00,
2013-11-23 00:47:00,37.7,33.0,30.41,NNW,327,2.0,4.0,84,0.00,,,0.00,weatherlink.com 1.10,2013-11-23 05:47:00,
2013-11-23 01:02:00,37.6,33.0,30.41,NNW,327,2.0,5.0,84,0.00,,,0.00,weatherlink.com 1.10,2013-11-23 06:02:00,
2013-11-23 01:18:00,37.4,33.0,30.41,NNW,327,0.0,4.0,84,0.00,,,0.00,weatherlink.com 1.10,2013-11-23 06:18:00,
2013-11-23 01:32:00,37.1,33.0,30.40,NNW,329,2.0,6.0,84,0.00,,,0.00,weatherlink.com 1.10,2013-11-23 06:32:00,
2013-11-23 01:47:00,36.6,33.0,30.40,NNW,329,2.0,5.0,85,0.00,,,0.00,weatherlink.com 1.10,2013-11-23 06:47:00,
2013-11-23 02:02:00,36.2,32.0,30.40,North,349,0.0,4.0,86,0.00,,,0.00,weatherlink.com 1.10,2013-11-23 07:02:00,
2013-11-23 02:18:00,35.7,32.0,30.40,NNW,337,0.0,6.0,86,0.00,,,0.00,weatherlink.com 1.10,2013-11-23 07:18:00,
2013-11-23 02:33:00,35.3,32.0,30.41,NNW,344,1.0,5.0,87,0.00,,,0.00,weatherlink.com 1.10,2013-11-23 07:33:00,
2013-11-23 02:48:00,34.9,31.0,30.41,NW,325,0.0,3.0,87,0.00,,,0.00,weatherlink.com 1.10,2013-11-23 07:48:00,
2013-11-23 03:03:00,34.5,31.0,30.41,NNE,16,0.0,2.0,87,0.00,,,0.00,weatherlink.com 1.10,2013-11-23 08:03:00,
2013-11-23 03:18:00,34.3,31.0,30.41,NW,311,2.0,4.0,88,0.00,,,0.00,weatherlink.com 1.10,2013-11-23 08:18:00,
2013-11-23 03:33:00,34.4,31.0,30.42,NW,325,0.0,4.0,88,0.00,,,0.00,weatherlink.com 1.10,2013-11-23 08:33:00,
2013-11-23 03:48:00,34.6,31.0,30.42,NW,312,2.0,6.0,87,0.00,,,0.00,weatherlink.com 1.10,2013-11-23 08:48:00,
2013-11-23 04:03:00,34.5,31.0,30.42,NNW,338,3.0,7.0,87,0.00,,,0.00,weatherlink.com 1.10,2013-11-23 09:03:00,
2013-11-23 04:18:00,34.1,30.0,30.42,NNW,329,1.0,5.0,86,0.00,,,0.00,weatherlink.com 1.10,2013-11-23 09:18:00,
2013-11-23 04:33:00,33.5,30.0,30.42,NW,321,4.0,5.0,87,0.00,,,0.00,weatherlink.com 1.10,2013-11-23 09:33:00,
2013-11-23 04:48:00,33.0,30.0,30.42,NNW,340,1.0,6.0,87,0.00,,,0.00,weatherlink.com 1.10,2013-11-23 09:48:00,
2013-11-23 05:03:00,32.4,29.0,30.42,NW,317,0.0,6.0,87,0.00,,,0.00,weatherlink.com 1.10,2013-11-23 10:03:00,
2013-11-23 05:18:00,31.9,29.0,30.43,NW,317,1.0,2.0,88,0.00,,,0.00,weatherlink.com 1.10,2013-11-23 10:18:00,
2013-11-23 05:33:00,31.4,29.0,30.43,NW,317,0.0,3.0,89,0.00,,,0.00,weatherlink.com 1.10,2013-11-23 10:33:00,
2013-11-23 05:48:00,31.0,28.0,30.44,NW,317,0.0,4.0,89,0.00,,,0.00,weatherlink.com 1.10,2013-11-23 10:48:00,
2013-11-23 06:03:00,30.8,28.0,30.44,NW,317,0.0,3.0,90,0.00,,,0.00,weatherlink.com 1.10,2013-11-23 11:03:00,
2013-11-23 06:18:00,30.5,28.0,30.45,NW,317,0.0,0.0,90,0.00,,,0.00,weatherlink.com 1.10,2013-11-23 11:18:00,
2013-11-23 06:33:00,30.3,28.0,30.45,NW,317,0.0,2.0,90,0.00,,,0.00,weatherlink.com 1.10,2013-11-23 11:33:00,
2013-11-23 06:48:00,30.1,28.0,30.44,NW,317,2.0,2.0,90,0.00,,,0.00,weatherlink.com 1.10,2013-11-23 11:48:00,
2013-11-23 07:03:00,29.9,27.0,30.45,NW,317,0.0,3.0,90,0.00,,,0.00,weatherlink.com 1.10,2013-11-23 12:03:00,
2013-11-23 07:18:00,29.8,27.0,30.44,NW,317,0.0,0.0,90,0.00,,,0.00,weatherlink.com 1.10,2013-11-23 12:18:00,
2013-11-23 07:33:00,29.5,27.0,30.45,NW,317,0.0,0.0,90,0.00,,,0.00,weatherlink.com 1.10,2013-11-23 12:33:00,
2013-11-23 07:48:00,29.3,27.0,30.45,NW,317,0.0,0.0,91,0.00,,,0.00,weatherlink.com 1.10,2013-11-23 12:48:00,
2013-11-23 08:03:00,29.6,28.0,30.46,West,275,1.0,3.0,92,0.00,,,0.00,weatherlink.com 1.10,2013-11-23 13:03:00,
2013-11-23 08:18:00,30.1,28.0,30.46,West,261,0.0,3.0,91,0.00,,,0.00,weatherlink.com 1.10,2013-11-23 13:18:00,
2013-11-23 08:33:00,30.5,28.0,30.47,West,261,0.0,3.0,90,0.00,,,0.00,weatherlink.com 1.10,2013-11-23 13:33:00,
2013-11-23 08:48:00,31.2,28.0,30.47,NW,304,1.0,3.0,89,0.00,,,0.00,weatherlink.com 1.10,2013-11-23 13:48:00,
2013-11-23 09:03:00,32.1,28.0,30.47,NNW,333,0.0,9.0,86,0.00,,,0.00,weatherlink.com 1.10,2013-11-23 14:03:00,
2013-11-23 09:18:00,32.3,28.0,30.47,NNW,338,2.0,8.0,83,0.00,,,0.00,weatherlink.com 1.10,2013-11-23 14:18:00,
2013-11-23 09:33:00,32.6,27.0,30.47,NNW,328,0.0,4.0,81,0.00,,,0.00,weatherlink.com 1.10,2013-11-23 14:33:00,
2013-11-23 09:49:00,33.1,27.0,30.48,West,269,1.0,4.0,79,0.00,,,0.00,weatherlink.com 1.10,2013-11-23 14:49:00,
2013-11-23 10:03:00,33.8,26.0,30.48,SW,236,1.0,5.0,74,0.00,,,0.00,weatherlink.com 1.10,2013-11-23 15:03:00,
2013-11-23 10:19:00,34.1,26.0,30.47,SW,234,1.0,5.0,72,0.00,,,0.00,weatherlink.com 1.10,2013-11-23 15:19:00,
2013-11-23 10:33:00,35.0,26.0,30.46,WNW,288,2.0,7.0,69,0.00,,,0.00,weatherlink.com 1.10,2013-11-23 15:33:00,
2013-11-23 10:48:00,35.7,26.0,30.46,WSW,242,0.0,7.0,67,0.00,,,0.00,weatherlink.com 1.10,2013-11-23 15:48:00,
2013-11-23 11:03:00,36.3,25.0,30.46,SW,226,0.0,6.0,65,0.00,,,0.00,weatherlink.com 1.10,2013-11-23 16:03:00,
2013-11-23 11:19:00,37.3,24.0,30.46,West,265,0.0,9.0,58,0.00,,,0.00,weatherlink.com 1.10,2013-11-23 16:19:00,
2013-11-23 11:34:00,37.7,24.0,30.45,WSW,248,2.0,8.0,58,0.00,,,0.00,weatherlink.com 1.10,2013-11-23 16:34:00,
2013-11-23 11:49:00,38.1,25.0,30.45,WSW,253,2.0,10.0,59,0.00,,,0.00,weatherlink.com 1.10,2013-11-23 16:49:00,
2013-11-23 12:04:00,38.4,25.0,30.44,West,261,6.0,12.0,58,0.00,,,0.00,weatherlink.com 1.10,2013-11-23 17:04:00,
2013-11-23 12:19:00,38.4,23.0,30.45,North,355,2.0,11.0,55,0.00,,,0.00,weatherlink.com 1.10,2013-11-23 17:19:00,
2013-11-23 12:34:00,38.3,21.0,30.44,NNE,13,9.0,13.0,50,0.00,,,0.00,weatherlink.com 1.10,2013-11-23 17:34:00,
2013-11-23 12:49:00,38.1,21.0,30.44,NNW,343,1.0,11.0,50,0.00,,,0.00,weatherlink.com 1.10,2013-11-23 17:49:00,
2013-11-23 13:04:00,39.1,19.0,30.44,SW,228,6.0,9.0,45,0.00,,,0.00,weatherlink.com 1.10,2013-11-23 18:04:00,
2013-11-23 13:19:00,39.8,21.0,30.45,NNW,330,8.0,14.0,47,0.00,,,0.00,weatherlink.com 1.10,2013-11-23 18:19:00,
2013-11-23 13:34:00,38.4,22.0,30.44,WNW,298,2.0,14.0,52,0.00,,,0.00,weatherlink.com 1.10,2013-11-23 18:34:00,
2013-11-23 13:49:00,37.4,24.0,30.46,WNW,294,10.0,17.0,58,0.00,,,0.00,weatherlink.com 1.10,2013-11-23 18:49:00,
2013-11-23 14:04:00,36.6,23.0,30.46,NW,313,4.0,17.0,58,0.00,,,0.00,weatherlink.com 1.10,2013-11-23 19:04:00,
2013-11-23 14:19:00,36.3,23.0,30.46,NW,319,7.0,14.0,58,0.00,,,0.00,weatherlink.com 1.10,2013-11-23 19:19:00,
2013-11-23 14:34:00,36.5,24.0,30.46,NW,322,4.0,10.0,60,0.00,,,0.00,weatherlink.com 1.10,2013-11-23 19:34:00,
2013-11-23 14:49:00,37.9,23.0,30.46,North,5,7.0,14.0,55,0.00,,,0.00,weatherlink.com 1.10,2013-11-23 19:49:00,
2013-11-23 15:04:00,36.2,21.0,30.47,NW,309,5.0,13.0,55,0.00,,,0.00,weatherlink.com 1.10,2013-11-23 20:04:00,
2013-11-23 15:19:00,35.3,21.0,30.47,WNW,294,5.0,14.0,56,0.00,,,0.00,weatherlink.com 1.10,2013-11-23 20:19:00,
2013-11-23 15:34:00,34.5,22.0,30.48,West,271,2.0,11.0,60,0.00,,,0.00,weatherlink.com 1.10,2013-11-23 20:34:00,
2013-11-23 15:49:00,34.4,22.0,30.48,West,277,4.0,12.0,60,0.00,,,0.00,weatherlink.com 1.10,2013-11-23 20:49:00,
2013-11-23 16:04:00,34.5,21.0,30.49,NW,314,3.0,13.0,57,0.00,,,0.00,weatherlink.com 1.10,2013-11-23 21:04:00,
2013-11-23 16:19:00,33.2,19.0,30.50,NW,317,8.0,14.0,57,0.00,,,0.00,weatherlink.com 1.10,2013-11-23 21:19:00,
2013-11-23 16:34:00,33.7,19.0,30.50,NNE,12,5.0,11.0,55,0.00,,,0.00,weatherlink.com 1.10,2013-11-23 21:34:00,
2013-11-23 16:49:00,32.9,17.0,30.51,North,355,4.0,14.0,53,0.00,,,0.00,weatherlink.com 1.10,2013-11-23 21:49:00,
2013-11-23 17:04:00,31.4,17.0,30.52,NNW,338,2.0,12.0,55,0.00,,,0.00,weatherlink.com 1.10,2013-11-23 22:04:00,
2013-11-23 17:19:00,30.4,17.0,30.52,NNW,338,7.0,11.0,58,0.00,,,0.00,weatherlink.com 1.10,2013-11-23 22:19:00,
2013-11-23 17:34:00,29.5,16.0,30.52,NW,315,6.0,16.0,58,0.00,,,0.00,weatherlink.com 1.10,2013-11-23 22:34:00,
2013-11-23 17:49:00,29.0,17.0,30.53,NW,313,4.0,10.0,60,0.00,,,0.00,weatherlink.com 1.10,2013-11-23 22:49:00,
2013-11-23 18:04:00,28.6,17.0,30.54,NW,311,3.0,16.0,61,0.00,,,0.00,weatherlink.com 1.10,2013-11-23 23:04:00,
2013-11-23 18:19:00,28.1,16.0,30.55,WNW,302,5.0,9.0,62,0.00,,,0.00,weatherlink.com 1.10,2013-11-23 23:19:00,
2013-11-23 18:34:00,27.8,16.0,30.55,NNW,331,3.0,11.0,62,0.00,,,0.00,weatherlink.com 1.10,2013-11-23 23:34:00,
2013-11-23 18:49:00,27.7,16.0,30.55,NW,315,5.0,9.0,63,0.00,,,0.00,weatherlink.com 1.10,2013-11-23 23:49:00,
2013-11-23 19:04:00,27.5,17.0,30.56,NNW,340,3.0,10.0,65,0.00,,,0.00,weatherlink.com 1.10,2013-11-24 00:04:00,
2013-11-23 19:19:00,27.5,16.0,30.57,NW,321,5.0,15.0,62,0.00,,,0.00,weatherlink.com 1.10,2013-11-24 00:19:00,
2013-11-23 19:34:00,27.0,14.0,30.57,NW,318,9.0,13.0,58,0.00,,,0.00,weatherlink.com 1.10,2013-11-24 00:34:00,
2013-11-23 19:49:00,26.1,13.0,30.58,NNW,333,5.0,14.0,58,0.00,,,0.00,weatherlink.com 1.10,2013-11-24 00:49:00,
2013-11-23 20:05:00,25.6,13.0,30.58,NW,324,0.0,8.0,60,0.00,,,0.00,weatherlink.com 1.10,2013-11-24 01:05:00,
2013-11-23 20:20:00,25.8,14.0,30.59,NNW,338,11.0,13.0,61,0.00,,,0.00,weatherlink.com 1.10,2013-11-24 01:20:00,
2013-11-23 20:35:00,25.5,13.0,30.59,NW,317,4.0,15.0,59,0.00,,,0.00,weatherlink.com 1.10,2013-11-24 01:35:00,
2013-11-23 20:50:00,25.0,13.0,30.60,NNW,332,1.0,9.0,61,0.00,,,0.00,weatherlink.com 1.10,2013-11-24 01:50:00,
2013-11-23 21:05:00,24.8,12.0,30.60,North,5,5.0,10.0,59,0.00,,,0.00,weatherlink.com 1.10,2013-11-24 02:05:00,
2013-11-23 21:20:00,24.5,12.0,30.61,NNW,337,2.0,13.0,60,0.00,,,0.00,weatherlink.com 1.10,2013-11-24 02:20:00,
2013-11-23 21:35:00,24.4,11.0,30.61,NE,40,2.0,15.0,58,0.00,,,0.00,weatherlink.com 1.10,2013-11-24 02:35:00,
2013-11-23 21:50:00,24.0,11.0,30.62,WNW,300,4.0,12.0,59,0.00,,,0.00,weatherlink.com 1.10,2013-11-24 02:50:00,
2013-11-23 22:05:00,23.5,11.0,30.62,NNE,12,4.0,8.0,59,0.00,,,0.00,weatherlink.com 1.10,2013-11-24 03:05:00,
2013-11-23 22:20:00,23.0,11.0,30.62,NE,54,4.0,9.0,61,0.00,,,0.00,weatherlink.com 1.10,2013-11-24 03:20:00,
2013-11-23 22:35:00,22.8,11.0,30.63,NNE,15,0.0,11.0,60,0.00,,,0.00,weatherlink.com 1.10,2013-11-24 03:35:00,
2013-11-23 22:50:00,22.5,10.0,30.63,NW,322,1.0,9.0,60,0.00,,,0.00,weatherlink.com 1.10,2013-11-24 03:50:00,
2013-11-23 23:05:00,22.2,11.0,30.63,North,5,3.0,10.0,61,0.00,,,0.00,weatherlink.com 1.10,2013-11-24 04:05:00,
2013-11-23 23:20:00,21.9,11.0,30.64,NNE,23,2.0,6.0,62,0.00,,,0.00,weatherlink.com 1.10,2013-11-24 04:20:00,
2013-11-23 23:35:00,21.6,11.0,30.64,NNW,339,0.0,5.0,63,0.00,,,0.00,weatherlink.com 1.10,2013-11-24 04:35:00,
2013-11-23 23:50:00,21.2,11.0,30.64,NNW,348,0.0,3.0,66,0.00,,,0.00,weatherlink.com 1.10,2013-11-24 04:50:00,